createdAt,value
2023-09-19T00:00:48.930Z,23.31
2023-09-19T00:03:38.355Z,23.25
2023-09-19T00:06:08.484Z,23.24
2023-09-19T00:08:37.663Z,23.28
2023-09-19T00:11:07.364Z,23.32
2023-09-19T00:13:36.758Z,23.23
2023-09-19T00:16:11.545Z,23.11
2023-09-19T00:18:39.116Z,23.23
2023-09-19T00:21:07.702Z,23.12
2023-09-19T00:23:34.700Z,23.01
2023-09-19T00:26:01.950Z,23.02
2023-09-19T00:28:30.756Z,23.12
2023-09-19T00:31:02.296Z,23.13
2023-09-19T00:33:30.648Z,23.15
2023-09-19T00:35:59.045Z,22.99
2023-09-19T00:38:28.356Z,23.18
2023-09-19T00:41:00.903Z,23.25
2023-09-19T00:43:37.832Z,23.06
2023-09-19T00:46:06.924Z,23.12
2023-09-19T00:48:41.881Z,23.13
2023-09-19T00:51:10.165Z,23.26
2023-09-19T00:53:40.162Z,23.30
2023-09-19T00:56:07.570Z,23.26
2023-09-19T00:58:37.729Z,23.38
2023-09-19T01:01:08.719Z,23.56
2023-09-19T01:03:46.322Z,23.54
2023-09-19T01:06:15.656Z,23.62
2023-09-19T01:08:43.943Z,23.59
2023-09-19T01:11:30.583Z,23.40
2023-09-19T01:14:36.093Z,23.33
2023-09-19T01:17:31.333Z,23.33
2023-09-19T01:20:16.299Z,23.44
2023-09-19T01:27:23.514Z,23.19
2023-09-19T01:30:35.513Z,22.94
2023-09-19T01:33:07.818Z,22.97
2023-09-19T01:35:39.711Z,23.12
2023-09-19T01:38:10.175Z,23.45
2023-09-19T01:40:45.450Z,23.60
2023-09-19T01:43:22.839Z,23.57
2023-09-19T01:46:17.426Z,23.83
2023-09-19T01:49:05.028Z,23.83
2023-09-19T01:52:03.215Z,23.87
2023-09-19T01:54:46.711Z,23.75
2023-09-19T01:57:29.308Z,23.67
2023-09-19T02:00:06.948Z,23.73
2023-09-19T02:02:45.400Z,23.78
2023-09-19T02:05:13.546Z,23.95
2023-09-19T02:07:41.405Z,23.80
2023-09-19T02:10:10.878Z,23.66
2023-09-19T02:12:39.749Z,23.58
2023-09-19T02:15:08.513Z,23.39
2023-09-19T02:17:36.077Z,23.24
2023-09-19T02:20:11.536Z,23.06
2023-09-19T02:22:39.697Z,23.18
2023-09-19T02:25:08.579Z,23.06
2023-09-19T02:27:37.892Z,23.07
2023-09-19T02:30:06.909Z,23.02
2023-09-19T02:32:37.296Z,23.15
2023-09-19T02:35:06.763Z,23.28
2023-09-19T02:37:34.027Z,23.29
2023-09-19T02:40:03.129Z,23.06
2023-09-19T02:42:31.072Z,22.98
2023-09-19T02:44:59.169Z,22.88
2023-09-19T02:47:28.230Z,22.95
2023-09-19T02:49:57.909Z,22.96
2023-09-19T02:52:26.226Z,22.89
2023-09-19T02:54:53.336Z,22.91
2023-09-19T02:57:20.985Z,22.87
2023-09-19T02:59:49.028Z,22.85
2023-09-19T03:02:17.049Z,22.75
2023-09-19T03:04:46.405Z,22.65
2023-09-19T03:07:14.267Z,22.69
2023-09-19T03:09:43.156Z,22.91
2023-09-19T03:12:12.211Z,22.96
2023-09-19T03:14:40.042Z,22.94
2023-09-19T03:17:09.914Z,22.89
2023-09-19T03:19:40.037Z,22.64
2023-09-19T03:22:08.200Z,22.92
2023-09-19T03:24:38.334Z,22.79
2023-09-19T03:27:06.968Z,22.57
2023-09-19T03:29:35.711Z,22.73
2023-09-19T03:32:04.780Z,22.70
2023-09-19T03:34:33.020Z,22.73
2023-09-19T03:37:00.383Z,22.73
2023-09-19T03:39:28.798Z,22.64
2023-09-19T03:41:56.039Z,22.73
2023-09-19T03:44:25.047Z,22.79
2023-09-19T03:46:52.334Z,22.79
2023-09-19T03:49:20.212Z,22.85
2023-09-19T03:51:47.401Z,22.76
2023-09-19T03:54:17.650Z,22.60
2023-09-19T03:56:45.748Z,22.52
2023-09-19T03:59:14.436Z,22.46
2023-09-19T04:01:43.681Z,22.46
2023-09-19T04:04:13.172Z,22.44
2023-09-19T04:06:41.219Z,22.61
2023-09-19T04:09:08.531Z,22.48
2023-09-19T04:11:37.609Z,22.51
2023-09-19T04:14:06.593Z,22.40
2023-09-19T04:16:35.020Z,22.27
2023-09-19T04:19:04.464Z,22.26
2023-09-19T04:21:33.881Z,22.16
2023-09-19T04:24:02.274Z,22.12
2023-09-19T04:26:31.017Z,22.17
2023-09-19T04:28:58.814Z,22.18
2023-09-19T04:31:26.671Z,22.21
2023-09-19T04:33:55.295Z,22.20
2023-09-19T04:36:34.776Z,22.33
2023-09-19T04:39:08.476Z,22.32
2023-09-19T04:41:39.565Z,22.09
2023-09-19T04:44:07.038Z,22.05
2023-09-19T04:46:36.620Z,22.13
2023-09-19T04:49:04.453Z,22.24
2023-09-19T04:51:35.414Z,22.11
2023-09-19T04:54:03.502Z,22.04
2023-09-19T04:56:31.274Z,22.07
2023-09-19T04:58:59.930Z,22.04
2023-09-19T05:01:27.723Z,21.96
2023-09-19T05:03:55.055Z,22.06
2023-09-19T05:06:23.138Z,22.03
2023-09-19T05:08:54.117Z,21.94
2023-09-19T05:11:23.318Z,22.02
2023-09-19T05:13:51.042Z,22.08
2023-09-19T05:16:18.707Z,22.07
2023-09-19T05:18:46.413Z,22.17
2023-09-19T05:21:14.225Z,22.22
2023-09-19T05:23:41.772Z,22.31
2023-09-19T05:26:09.239Z,22.35
2023-09-19T05:28:36.434Z,22.27
2023-09-19T05:31:03.650Z,22.21
2023-09-19T05:33:32.555Z,22.28
2023-09-19T05:35:59.722Z,22.27
2023-09-19T05:38:28.316Z,22.36
2023-09-19T05:40:55.535Z,22.55
2023-09-19T05:43:23.100Z,22.44
2023-09-19T05:45:52.579Z,22.56
2023-09-19T05:48:21.695Z,22.51
2023-09-19T05:50:52.181Z,22.69
2023-09-19T05:53:19.404Z,22.60
2023-09-19T05:55:46.656Z,22.68
2023-09-19T05:58:18.540Z,22.56
2023-09-19T06:00:47.989Z,22.75
2023-09-19T06:03:16.429Z,22.83
2023-09-19T06:05:47.401Z,22.61
2023-09-19T06:08:14.479Z,22.74
2023-09-19T06:10:41.609Z,22.85
2023-09-19T06:13:10.665Z,22.96
2023-09-19T06:15:38.160Z,23.01
2023-09-19T06:18:06.496Z,22.80
2023-09-19T06:20:33.974Z,22.95
2023-09-19T06:23:04.112Z,22.69
2023-09-19T06:25:31.352Z,22.71
2023-09-19T06:27:58.541Z,22.56
2023-09-19T06:30:26.840Z,22.65
2023-09-19T06:32:58.893Z,22.64
2023-09-19T06:35:30.070Z,22.87
2023-09-19T06:37:58.706Z,22.89
2023-09-19T06:40:26.302Z,23.08
2023-09-19T06:42:54.679Z,23.20
2023-09-19T06:45:22.932Z,23.12
2023-09-19T06:47:52.843Z,23.21
2023-09-19T06:50:25.871Z,23.30
2023-09-19T06:53:03.743Z,23.23
2023-09-19T06:55:32.177Z,23.30
2023-09-19T06:58:01.156Z,23.37
2023-09-19T07:00:32.584Z,23.67
2023-09-19T07:03:05.269Z,23.84
2023-09-19T07:05:40.039Z,23.95
2023-09-19T07:08:11.619Z,23.61
2023-09-19T07:10:50.147Z,23.60
2023-09-19T07:13:18.049Z,23.43
2023-09-19T07:15:50.714Z,23.50
2023-09-19T07:18:18.894Z,23.69
2023-09-19T07:20:50.173Z,23.86
2023-09-19T07:23:23.614Z,24.30
2023-09-19T07:25:51.031Z,24.49
2023-09-19T07:28:19.427Z,24.70
2023-09-19T07:30:46.698Z,24.68
2023-09-19T07:33:14.136Z,24.64
2023-09-19T07:35:47.527Z,25.01
2023-09-19T07:38:14.856Z,25.29
2023-09-19T07:40:42.789Z,24.56
2023-09-19T07:43:11.341Z,24.64
2023-09-19T07:45:39.458Z,24.87
2023-09-19T07:48:14.883Z,25.32
2023-09-19T07:50:44.256Z,25.47
2023-09-19T07:53:16.164Z,25.03
2023-09-19T07:55:48.591Z,24.80
2023-09-19T07:58:16.595Z,24.91
2023-09-19T08:00:43.668Z,24.84
2023-09-19T08:03:17.229Z,24.83
2023-09-19T08:05:47.193Z,24.90
2023-09-19T08:08:15.373Z,24.86
2023-09-19T08:10:44.311Z,24.96
2023-09-19T08:13:16.714Z,24.70
2023-09-19T08:15:45.726Z,24.72
2023-09-19T08:18:14.494Z,24.64
2023-09-19T08:20:47.035Z,24.83
2023-09-19T08:23:15.076Z,24.95
2023-09-19T08:25:43.428Z,24.85
2023-09-19T08:28:13.210Z,25.14
2023-09-19T08:30:42.272Z,25.37
2023-09-19T08:33:09.636Z,25.37
2023-09-19T08:35:38.528Z,25.55
2023-09-19T08:38:06.910Z,25.77
2023-09-19T08:40:40.446Z,25.99
2023-09-19T08:43:08.547Z,26.32
2023-09-19T08:45:37.516Z,26.45
2023-09-19T08:48:18.497Z,26.88
2023-09-19T08:51:08.528Z,25.35
2023-09-19T08:53:46.813Z,25.15
2023-09-19T08:56:15.031Z,25.07
2023-09-19T08:58:54.120Z,25.55
2023-09-19T09:01:25.726Z,25.23
2023-09-19T09:03:59.007Z,25.38
2023-09-19T09:06:44.987Z,25.23
2023-09-19T09:09:12.728Z,25.18
2023-09-19T09:11:42.754Z,25.31
2023-09-19T09:14:10.774Z,25.38
2023-09-19T09:16:39.049Z,25.61
2023-09-19T09:19:15.011Z,25.80
2023-09-19T09:21:54.990Z,25.74
2023-09-19T09:24:34.656Z,25.81
2023-09-19T09:27:17.726Z,25.78
2023-09-19T09:30:01.569Z,25.72
2023-09-19T09:32:35.251Z,25.57
2023-09-19T09:35:10.611Z,25.86
2023-09-19T09:40:42.157Z,25.71
2023-09-19T09:43:28.505Z,26.42
2023-09-19T09:46:39.573Z,26.46
2023-09-19T09:49:19.256Z,26.95
2023-09-19T09:52:20.616Z,26.21
2023-09-19T09:55:02.423Z,27.08
2023-09-19T09:57:31.812Z,27.05
2023-09-19T10:00:17.216Z,27.20
2023-09-19T10:02:47.204Z,27.29
2023-09-19T10:05:22.338Z,27.59
2023-09-19T10:08:01.466Z,27.06
2023-09-19T10:10:39.575Z,25.99
2023-09-19T10:13:25.936Z,25.49
2023-09-19T10:15:55.962Z,25.65
2023-09-19T10:18:31.285Z,26.17
2023-09-19T10:21:05.117Z,26.07
2023-09-19T10:23:35.775Z,26.23
2023-09-19T10:26:28.971Z,26.65
2023-09-19T10:29:00.679Z,26.87
2023-09-19T10:31:35.923Z,27.71
2023-09-19T10:34:09.895Z,27.79
2023-09-19T10:36:43.002Z,27.01
2023-09-19T10:39:14.499Z,27.38
2023-09-19T10:42:06.310Z,27.85
2023-09-19T10:44:46.541Z,27.96
2023-09-19T10:47:16.496Z,27.60
2023-09-19T10:49:47.650Z,27.91
2023-09-19T10:52:20.127Z,28.27
2023-09-19T10:54:52.162Z,28.47
2023-09-19T10:57:25.327Z,27.63
2023-09-19T11:00:28.809Z,27.32
2023-09-19T11:03:12.997Z,26.70
2023-09-19T11:05:44.646Z,26.41
2023-09-19T11:08:21.152Z,27.06
2023-09-19T11:10:55.573Z,27.85
2023-09-19T11:13:32.216Z,27.27
2023-09-19T11:16:00.490Z,27.79
2023-09-19T11:18:43.782Z,28.40
2023-09-19T11:21:55.275Z,27.91
2023-09-19T11:24:31.906Z,28.85
2023-09-19T11:27:15.771Z,28.06
2023-09-19T11:29:43.387Z,27.78
2023-09-19T11:32:11.369Z,27.75
2023-09-19T11:34:50.848Z,27.98
2023-09-19T11:37:17.979Z,27.73
2023-09-19T11:40:17.709Z,27.52
2023-09-19T11:42:57.790Z,27.87
2023-09-19T11:45:58.465Z,28.10
2023-09-19T11:48:30.395Z,27.56
2023-09-19T11:51:00.021Z,26.89
2023-09-19T11:53:36.753Z,26.22
2023-09-19T11:56:11.073Z,26.29
2023-09-19T11:58:39.037Z,26.63
2023-09-19T12:01:13.763Z,26.40
2023-09-19T12:03:50.356Z,26.71
2023-09-19T12:06:19.451Z,27.41
2023-09-19T12:08:49.046Z,29.01
2023-09-19T12:11:17.836Z,29.81
2023-09-19T12:13:49.474Z,30.35
2023-09-19T12:16:22.539Z,29.46
2023-09-19T12:18:52.090Z,30.02
2023-09-19T12:21:35.618Z,30.85
2023-09-19T12:24:07.424Z,30.34
2023-09-19T12:26:46.092Z,29.73
2023-09-19T12:29:21.447Z,29.52
2023-09-19T12:31:58.025Z,28.45
2023-09-19T12:34:30.449Z,29.19
2023-09-19T12:37:12.884Z,30.14
2023-09-19T12:39:55.656Z,29.41
2023-09-19T12:42:33.406Z,30.15
2023-09-19T12:45:01.662Z,30.63
2023-09-19T12:47:30.788Z,30.75
2023-09-19T12:50:14.658Z,30.05
2023-09-19T12:52:49.609Z,31.11
2023-09-19T12:55:29.498Z,30.86
2023-09-19T12:57:59.561Z,28.39
2023-09-19T13:00:35.572Z,27.78
2023-09-19T13:03:25.595Z,29.15
2023-09-19T13:05:56.158Z,27.90
2023-09-19T13:08:33.301Z,28.12
2023-09-19T13:11:03.423Z,29.70
2023-09-19T13:13:32.020Z,30.07
2023-09-19T13:15:59.261Z,31.08
2023-09-19T13:18:27.539Z,31.67
2023-09-19T13:21:15.834Z,31.27
2023-09-19T13:23:45.895Z,29.22
2023-09-19T13:26:13.124Z,29.13
2023-09-19T13:28:41.496Z,27.67
2023-09-19T13:31:12.159Z,27.32
2023-09-19T13:33:49.281Z,29.30
2023-09-19T13:36:25.437Z,29.99
2023-09-19T13:38:56.387Z,30.28
2023-09-19T13:41:25.846Z,30.45
2023-09-19T13:43:53.939Z,30.13
2023-09-19T13:46:26.295Z,29.81
2023-09-19T13:48:56.619Z,29.80
2023-09-19T13:51:23.796Z,30.92
2023-09-19T13:53:51.601Z,30.11
2023-09-19T13:56:19.504Z,29.14
2023-09-19T13:58:47.598Z,28.73
2023-09-19T14:01:14.923Z,28.31
2023-09-19T14:03:51.861Z,28.33
2023-09-19T14:06:19.473Z,28.26
2023-09-19T14:08:48.630Z,28.60
2023-09-19T14:11:17.190Z,28.57
2023-09-19T14:13:49.345Z,28.22
2023-09-19T14:16:18.906Z,28.07
2023-09-19T14:18:47.216Z,28.25
2023-09-19T14:21:15.365Z,28.51
2023-09-19T14:23:44.137Z,28.63
2023-09-19T14:26:12.653Z,28.70
2023-09-19T14:28:40.689Z,28.61
2023-09-19T14:31:12.433Z,28.61
2023-09-19T14:33:40.800Z,29.35
2023-09-19T14:36:11.236Z,28.94
2023-09-19T14:38:39.506Z,28.92
2023-09-19T14:41:08.251Z,28.63
2023-09-19T14:43:36.409Z,28.15
2023-09-19T14:46:16.977Z,28.07
2023-09-19T14:48:50.002Z,27.41
2023-09-19T14:51:22.217Z,27.17
2023-09-19T14:53:52.498Z,27.08
2023-09-19T14:56:21.338Z,26.71
2023-09-19T14:58:48.737Z,26.58
2023-09-19T15:01:16.286Z,26.79
2023-09-19T15:03:44.511Z,26.38
2023-09-19T15:06:17.842Z,26.07
2023-09-19T15:08:48.314Z,26.06
2023-09-19T15:11:17.792Z,26.06
2023-09-19T15:13:46.977Z,25.95
2023-09-19T15:16:15.512Z,26.15
2023-09-19T15:18:45.724Z,26.21
2023-09-19T15:21:15.161Z,26.44
2023-09-19T15:23:44.368Z,26.67
2023-09-19T15:26:21.003Z,26.59
2023-09-19T15:28:51.913Z,26.65
2023-09-19T15:31:20.000Z,26.81
2023-09-19T15:33:50.089Z,26.82
2023-09-19T15:36:19.303Z,27.32
2023-09-19T15:39:01.404Z,27.62
2023-09-19T15:41:33.642Z,27.71
2023-09-19T15:44:15.227Z,27.44
2023-09-19T15:46:43.134Z,27.02
2023-09-19T15:49:10.948Z,26.99
2023-09-19T15:51:42.076Z,26.95
2023-09-19T15:54:14.889Z,26.72
2023-09-19T15:56:47.497Z,26.62
2023-09-19T15:59:15.687Z,26.35
2023-09-19T16:01:45.004Z,26.51
2023-09-19T16:04:13.581Z,26.50
2023-09-19T16:06:41.640Z,26.32
2023-09-19T16:09:11.328Z,26.31
2023-09-19T16:11:38.730Z,25.94
2023-09-19T16:14:08.134Z,25.08
2023-09-19T16:16:41.373Z,24.85
2023-09-19T16:19:11.280Z,24.45
2023-09-19T16:21:44.321Z,24.65
2023-09-19T16:24:12.832Z,24.39
2023-09-19T16:26:40.640Z,24.39
2023-09-19T16:29:10.631Z,24.36
2023-09-19T16:31:38.856Z,24.24
2023-09-19T16:34:06.260Z,24.39
2023-09-19T16:36:35.031Z,24.13
2023-09-19T16:39:04.171Z,23.92
2023-09-19T16:41:31.512Z,23.74
2023-09-19T16:43:59.674Z,23.77
2023-09-19T16:46:29.372Z,23.87
2023-09-19T16:49:03.916Z,23.70
2023-09-19T16:51:33.917Z,23.73
2023-09-19T16:54:02.016Z,23.62
2023-09-19T16:56:33.742Z,23.52
2023-09-19T16:59:01.919Z,23.45
2023-09-19T17:01:33.014Z,23.32
2023-09-19T17:04:03.508Z,23.22
2023-09-19T17:06:31.013Z,23.13
2023-09-19T17:08:58.107Z,23.19
2023-09-19T17:11:25.880Z,23.18
2023-09-19T17:13:54.654Z,23.16
2023-09-19T17:16:24.335Z,23.07
2023-09-19T17:18:58.133Z,23.13
2023-09-19T17:21:27.687Z,23.00
2023-09-19T17:23:56.034Z,22.93
2023-09-19T17:26:25.760Z,22.83
2023-09-19T17:28:54.470Z,22.74
2023-09-19T17:31:26.135Z,22.81
2023-09-19T17:33:55.072Z,22.91
2023-09-19T17:36:24.161Z,22.90
2023-09-19T17:38:55.282Z,23.01
2023-09-19T17:41:23.965Z,22.80
2023-09-19T17:43:57.857Z,22.83
2023-09-19T17:46:26.727Z,22.61
2023-09-19T17:48:56.920Z,22.43
2023-09-19T17:51:25.371Z,22.30
2023-09-19T17:53:57.754Z,22.25
2023-09-19T17:56:25.671Z,22.26
2023-09-19T17:58:57.216Z,22.20
2023-09-19T18:01:35.824Z,22.08
2023-09-19T18:04:04.674Z,21.85
2023-09-19T18:06:32.933Z,21.49
2023-09-19T18:09:02.127Z,21.36
2023-09-19T18:11:30.290Z,21.31
2023-09-19T18:13:58.042Z,21.25
2023-09-19T18:16:32.215Z,21.22
2023-09-19T18:19:04.053Z,21.29
2023-09-19T18:21:46.835Z,21.18
2023-09-19T18:24:14.975Z,20.93
2023-09-19T18:26:43.521Z,20.71
2023-09-19T18:29:11.480Z,20.54
2023-09-19T18:31:39.913Z,20.50
2023-09-19T18:34:07.686Z,20.63
2023-09-19T18:36:37.376Z,20.66
2023-09-19T18:39:08.575Z,20.67
2023-09-19T18:41:38.946Z,20.73
2023-09-19T18:44:06.830Z,20.83
2023-09-19T18:46:35.246Z,20.85
2023-09-19T18:49:03.635Z,20.85
2023-09-19T18:51:31.953Z,20.70
2023-09-19T18:54:12.423Z,20.61
2023-09-19T18:56:43.306Z,20.43
2023-09-19T18:59:13.683Z,20.46
2023-09-19T19:01:41.702Z,20.39
2023-09-19T19:04:11.946Z,20.27
2023-09-19T19:06:40.218Z,20.08
2023-09-19T19:09:10.002Z,19.96
2023-09-19T19:11:38.825Z,19.92
2023-09-19T19:14:06.778Z,19.88
2023-09-19T19:16:37.416Z,19.76
2023-09-19T19:19:06.201Z,19.82
2023-09-19T19:21:35.010Z,19.81
2023-09-19T19:24:03.932Z,20.04
2023-09-19T19:26:32.305Z,20.15
2023-09-19T19:28:59.647Z,20.29
2023-09-19T19:31:28.597Z,20.17
2023-09-19T19:33:57.196Z,20.07
2023-09-19T19:36:26.472Z,19.96
2023-09-19T19:38:56.128Z,20.08
2023-09-19T19:41:27.264Z,20.10
2023-09-19T19:43:56.305Z,19.99
2023-09-19T19:46:23.593Z,19.93
2023-09-19T19:48:54.583Z,19.91
2023-09-19T19:51:22.389Z,19.69
2023-09-19T19:53:50.971Z,19.73
2023-09-19T19:56:19.880Z,19.64
2023-09-19T19:58:49.220Z,19.38
2023-09-19T20:01:17.860Z,19.12
2023-09-19T20:03:46.000Z,18.95
2023-09-19T20:06:14.806Z,18.83
2023-09-19T20:08:43.371Z,18.96
2023-09-19T20:11:12.342Z,18.92
2023-09-19T20:13:43.795Z,19.03
2023-09-19T20:16:14.036Z,19.13
2023-09-19T20:18:41.942Z,19.11
2023-09-19T20:21:14.631Z,19.09
2023-09-19T20:23:45.422Z,19.03
2023-09-19T20:26:12.947Z,19.09
2023-09-19T20:28:41.694Z,19.06
2023-09-19T20:31:12.851Z,19.02
2023-09-19T20:33:42.674Z,18.97
2023-09-19T20:36:12.937Z,18.74
2023-09-19T20:38:42.180Z,18.73
2023-09-19T20:41:14.422Z,18.76
2023-09-19T20:43:42.181Z,18.59
2023-09-19T20:46:13.887Z,18.52
2023-09-19T20:48:43.727Z,18.53
2023-09-19T20:51:13.794Z,18.58
2023-09-19T20:53:44.776Z,18.73
2023-09-19T20:56:15.000Z,18.76
2023-09-19T20:58:43.888Z,18.83
2023-09-19T21:01:13.484Z,18.76
2023-09-19T21:03:41.581Z,18.77
2023-09-19T21:06:14.036Z,18.70
2023-09-19T21:08:43.014Z,18.44
2023-09-19T21:11:16.833Z,18.38
2023-09-19T21:13:48.940Z,18.35
2023-09-19T21:16:18.377Z,18.45
2023-09-19T21:18:46.928Z,18.43
2023-09-19T21:21:16.428Z,18.28
2023-09-19T21:23:45.196Z,18.29
2023-09-19T21:26:14.753Z,18.27
2023-09-19T21:28:45.699Z,18.33
2023-09-19T21:31:13.977Z,18.36
2023-09-19T21:33:43.059Z,18.42
2023-09-19T21:36:25.086Z,18.43
2023-09-19T21:38:56.184Z,18.56
2023-09-19T21:41:24.985Z,18.56
2023-09-19T21:43:52.854Z,18.46
2023-09-19T21:46:21.188Z,18.44
2023-09-19T21:48:57.834Z,18.43
2023-09-19T21:51:25.884Z,18.33
2023-09-19T21:53:55.041Z,18.22
2023-09-19T21:56:23.700Z,18.35
2023-09-19T21:58:54.722Z,18.23
2023-09-19T22:01:26.257Z,18.25
2023-09-19T22:03:55.467Z,18.03
2023-09-19T22:06:24.110Z,18.00
2023-09-19T22:08:53.143Z,18.13
2023-09-19T22:11:21.446Z,18.26
2023-09-19T22:13:50.584Z,18.33
2023-09-19T22:16:20.197Z,18.28
2023-09-19T22:18:49.231Z,18.03
2023-09-19T22:21:22.610Z,17.99
2023-09-19T22:23:53.196Z,18.06
2023-09-19T22:26:23.172Z,18.09
2023-09-19T22:28:53.482Z,17.95
2023-09-19T22:31:28.939Z,17.87
2023-09-19T22:33:56.905Z,17.63
2023-09-19T22:36:33.365Z,17.64
2023-09-19T22:39:02.594Z,17.84
2023-09-19T22:41:32.725Z,17.81
2023-09-19T22:44:06.418Z,17.96
2023-09-19T22:46:37.717Z,18.00
2023-09-19T22:49:13.067Z,17.77
2023-09-19T22:51:46.819Z,17.89
2023-09-19T22:54:17.904Z,17.80
2023-09-19T22:56:52.189Z,17.88
2023-09-19T22:59:21.376Z,17.62
2023-09-19T23:01:53.352Z,17.75
2023-09-19T23:04:23.376Z,17.88
2023-09-19T23:06:52.816Z,17.90
2023-09-19T23:09:26.943Z,17.84
2023-09-19T23:11:57.572Z,17.82
2023-09-19T23:14:33.780Z,17.79
2023-09-19T23:17:12.605Z,17.83
2023-09-19T23:19:43.407Z,17.82
2023-09-19T23:22:24.262Z,17.68
2023-09-19T23:25:10.445Z,17.61
2023-09-19T23:27:37.808Z,17.52
2023-09-19T23:30:08.319Z,17.41
2023-09-19T23:32:35.787Z,17.57
2023-09-19T23:35:04.706Z,17.58
2023-09-19T23:37:33.918Z,17.53
2023-09-19T23:40:06.053Z,17.49
2023-09-19T23:42:33.647Z,17.34
2023-09-19T23:45:01.796Z,17.27
2023-09-19T23:47:29.145Z,17.16
2023-09-19T23:49:58.210Z,17.23
2023-09-19T23:52:25.700Z,17.29
2023-09-19T23:54:53.973Z,17.43
2023-09-19T23:57:22.478Z,17.51
2023-09-19T23:59:50.247Z,17.55
